MAPA DE AEROPUERTO

INFORMACIÓN METAR y TAF

METAR FOR GCHI
ADDS - METARS form results

(0923 UTC 05 December 2020)
Data provider http://aviationweather.gov/metar/data/
 
METAR text: GCHI 050900Z 02014KT 340V050 9999 FEW025 20/15 Q1019
Conditions at: GCHI (HIERRO AIRPORT , ES) observed 0900 UTC 05 December 2020
Temperature: 20.0°C (68°F)
Dewpoint: 15.0°C (59°F) [RH = 73%]
Pressure (altimeter): 30.09 inches Hg (1019.0 mb)
Winds: from the NNE (20 degrees) at 16 MPH (14 knots; 7.2 m/s)
Visibility: 6 or more miles (10+ km)
Ceiling: at least 12,000 feet AGL
Clouds: few clouds at 2500 feet AGL
Weather: no significant weather observed at this time

METAR text: GCHI 050830Z 34015KT 9999 FEW025 19/14 Q1019
Conditions at: GCHI (HIERRO AIRPORT , ES) observed 0830 UTC 05 December 2020
Temperature: 19.0°C (66°F)
Dewpoint: 14.0°C (57°F) [RH = 73%]
Pressure (altimeter): 30.09 inches Hg (1019.0 mb)
Winds: from the NNW (340 degrees) at 17 MPH (15 knots; 7.7 m/s)
Visibility: 6 or more miles (10+ km)
Ceiling: at least 12,000 feet AGL
Clouds: few clouds at 2500 feet AGL
Weather: no significant weather observed at this time

Forecast for: GCHI (HIERRO AIRPORT , ES)
Text: TAF GCHI 050800Z 0509/0609 01015KT 9999 BKN040 TX22/0514Z TN17/0607Z
Forecast period: 0900 UTC 05 December 2020 to 0900 UTC 06 December 2020
Forecast type: FROM: standard forecast or significant change
Winds: from the N (10 degrees) at 17 MPH (15 knots; 7.7 m/s)
Visibility: 6 or more miles (10+ km)
Ceiling: 4000 feet AGL
Clouds: broken clouds at 4000 feet AGL
Weather: no significant weather forecast for this period
Text: PROB30
Forecast period: 1100 to 2100 UTC 05 December 2020
Forecast type: TEMPORARY: The following changes expected for less than half the time period
Winds: from the NNE (20 degrees) at 21 MPH (18 knots; 9.3 m/s)
gusting to 32 MPH (28 knots; 14.4 m/s)
Visibility: missing
Ceiling: unknown
Clouds: missing
Weather: no significant weather forecast for this period